Time;durP1;ratioP1;P1;durP2;ratioP2;P2;SDS_P1;SDS_P2;PMS_P1;PMS_P2;Temp;Humidity;BMP_temperature;BMP_pressure;BME280_temperature;BME280_humidity;BME280_pressure;Samples;Min_cycle;Max_cycle;Signal;HPM_P1;HPM_P2
2022/09/04 00:00:19;;;;;;;;;44.75;38.25;;;;;20.80;57.88;100492.94;5117213;27;45374;-79
2022/09/04 00:03:09;;;;;;;;;18.75;18.75;;;;;20.77;58.13;100494.00;5107948;27;45356;-77
2022/09/04 00:05:51;;;;;;;;;15.00;14.25;;;;;20.70;57.79;100492.81;5098873;27;45531;-79
2022/09/04 00:08:29;;;;;;;;;20.00;20.00;;;;;20.66;58.00;100488.72;5117114;27;45177;-80
2022/09/04 00:11:07;;;;;;;;;24.50;24.50;;;;;20.62;58.15;100497.97;5118772;27;45432;-80
2022/09/04 00:13:41;;;;;;;;;18.75;18.75;;;;;20.58;58.19;100497.38;5127460;27;45402;-77
2022/09/04 00:16:19;;;;;;;;;16.50;16.50;;;;;20.55;58.36;100494.94;5145032;27;45596;-78
2022/09/04 00:19:01;;;;;;;;;17.00;17.00;;;;;20.51;58.59;100501.53;5146878;27;45434;-77
2022/09/04 00:21:34;;;;;;;;;15.75;15.75;;;;;20.46;58.77;100509.94;5125165;27;45993;-77
2022/09/04 00:24:04;;;;;;;;;16.50;16.50;;;;;20.40;58.65;100505.13;5142658;27;45396;-77
2022/09/04 00:26:43;;;;;;;;;17.50;17.50;;;;;20.36;58.97;100514.34;5139025;27;45286;-75
2022/09/04 00:29:25;;;;;;;;;12.00;12.00;;;;;20.32;58.61;100516.41;5138048;27;45486;-76
2022/09/04 00:32:23;;;;;;;;;12.50;12.50;;;;;20.26;58.61;100515.13;5137537;27;45240;-71
2022/09/04 00:35:13;;;;;;;;;15.25;15.25;;;;;20.22;58.87;100518.16;5135537;27;45417;-73
2022/09/04 00:37:47;;;;;;;;;13.00;13.00;;;;;20.16;59.23;100516.84;5136189;27;45566;-71
2022/09/04 00:40:27;;;;;;;;;12.00;12.00;;;;;20.12;59.29;100520.72;5136513;27;46169;-71
2022/09/04 00:43:05;;;;;;;;;13.25;13.25;;;;;20.09;58.97;100526.31;5135360;27;45416;-71
2022/09/04 00:45:59;;;;;;;;;13.50;13.50;;;;;20.03;59.37;100519.66;5136692;27;45385;-72
2022/09/04 00:48:47;;;;;;;;;15.75;15.75;;;;;19.93;59.61;100522.22;5118132;27;45511;-74
2022/09/04 00:51:21;;;;;;;;;19.00;18.25;;;;;19.89;59.72;100518.06;5134961;27;46416;-71
2022/09/04 00:54:08;;;;;;;;;14.00;14.00;;;;;19.94;59.31;100536.44;5117584;27;45279;-72
2022/09/04 00:57:12;;;;;;;;;14.00;14.00;;;;;19.90;59.91;100535.81;5136310;27;45315;-72
2022/09/04 00:59:57;;;;;;;;;14.00;14.00;;;;;19.89;59.75;100538.59;5136330;27;45455;-72
2022/09/04 01:02:30;;;;;;;;;14.25;14.25;;;;;19.86;59.81;100537.00;5139299;27;45362;-71
2022/09/04 01:06:00;;;;;;;;;15.00;15.00;;;;;19.81;59.41;100533.84;5139741;27;45498;-73
2022/09/04 01:08:58;;;;;;;;;14.25;14.25;;;;;19.78;59.70;100542.09;5035959;28;45284;-69
2022/09/04 01:11:58;;;;;;;;;14.75;14.75;;;;;19.74;59.63;100544.19;5036413;28;45515;-71
2022/09/04 01:14:47;;;;;;;;;12.00;12.00;;;;;19.70;59.78;100543.56;5131197;27;45416;-69
2022/09/04 01:17:18;;;;;;;;;12.75;12.75;;;;;19.66;59.85;100544.78;5140025;27;45268;-72
2022/09/04 01:20:11;;;;;;;;;11.50;11.50;;;;;19.62;59.28;100543.34;5140349;27;45356;-73
2022/09/04 01:23:00;;;;;;;;;12.75;12.75;;;;;19.60;59.61;100549.75;5101335;27;45443;-72
2022/09/04 01:25:42;;;;;;;;;11.00;11.00;;;;;19.54;59.43;100553.75;5140173;27;46546;-69
2022/09/04 01:28:24;;;;;;;;;11.75;11.75;;;;;19.51;59.87;100552.16;5139606;27;45432;-71
2022/09/04 01:31:19;;;;;;;;;12.00;12.00;;;;;19.48;59.60;100552.41;5139858;27;45438;-69
2022/09/04 01:34:04;;;;;;;;;12.50;12.50;;;;;19.40;59.60;100553.03;5139795;27;45507;-71
2022/09/04 01:36:54;;;;;;;;;11.50;11.50;;;;;19.38;59.40;100559.44;5121423;27;45547;-74
2022/09/04 01:39:24;;;;;;;;;11.00;11.00;;;;;19.33;59.87;100559.81;5139404;27;45389;-73
2022/09/04 01:41:59;;;;;;;;;15.50;15.50;;;;;19.29;59.75;100561.03;5139320;27;45377;-74
2022/09/04 01:44:25;;;;;;;;;18.25;18.25;;;;;19.26;59.29;100559.44;5139796;27;45405;-73
2022/09/04 01:47:01;;;;;;;;;11.00;11.00;;;;;19.22;59.30;100565.13;5120103;27;47307;-69
2022/09/04 01:49:41;;;;;;;;;9.50;9.50;;;;;19.19;59.01;100560.88;5139541;27;45408;-71
2022/09/04 01:52:07;;;;;;;;;8.50;8.50;;;;;19.17;59.11;100559.31;5139416;27;45373;-71
2022/09/04 01:55:03;;;;;;;;;11.00;11.00;;;;;19.13;59.04;100566.69;5139486;27;45650;-73
2022/09/04 01:57:45;;;;;;;;;11.00;11.00;;;;;19.08;58.92;100559.00;5139347;27;45499;-69
2022/09/04 02:00:13;;;;;;;;;11.25;11.25;;;;;19.08;59.07;100560.84;5139207;27;45293;-71
2022/09/04 02:02:40;;;;;;;;;9.00;9.00;;;;;19.06;58.69;100562.78;5139297;27;45279;-70
2022/09/04 02:05:19;;;;;;;;;8.50;8.50;;;;;19.05;58.98;100572.56;5139153;27;45278;-72
2022/09/04 02:07:58;;;;;;;;;8.75;8.75;;;;;19.03;58.22;100571.00;5139148;27;45761;-72
2022/09/04 02:10:34;;;;;;;;;9.00;9.00;;;;;19.00;58.73;100574.75;5139328;27;45440;-71
2022/09/04 02:13:13;;;;;;;;;11.00;11.00;;;;;18.97;58.59;100572.31;5138163;27;45372;-70
2022/09/04 02:16:29;;;;;;;;;10.75;10.75;;;;;18.95;58.73;100582.22;5138591;27;45357;-74
2022/09/04 02:19:04;;;;;;;;;13.50;13.50;;;;;18.94;58.54;100580.50;5094967;27;45284;-72
2022/09/04 02:21:42;;;;;;;;;9.00;9.00;;;;;18.92;58.52;100582.44;5138774;27;45280;-69
2022/09/04 02:24:38;;;;;;;;;9.00;9.00;;;;;18.91;58.09;100589.59;5139008;27;45317;-71
2022/09/04 02:27:18;;;;;;;;;8.00;8.00;;;;;18.88;58.55;100583.63;5138990;27;45610;-73
2022/09/04 02:29:53;;;;;;;;;7.00;7.00;;;;;18.86;58.21;100577.56;5138501;27;46772;-71
2022/09/04 02:32:28;;;;;;;;;9.75;9.00;;;;;18.83;58.51;100590.16;5139010;27;45367;-72
2022/09/04 02:35:03;;;;;;;;;6.50;6.50;;;;;18.83;58.24;100589.34;5139287;27;45369;-73
2022/09/04 02:37:54;;;;;;;;;7.75;7.75;;;;;18.82;58.25;100595.63;5139543;27;45313;-72
2022/09/04 02:40:37;;;;;;;;;8.75;8.75;;;;;18.80;58.27;100603.72;5138571;27;45470;-73
2022/09/04 02:43:19;;;;;;;;;10.00;10.00;;;;;18.78;58.72;100608.31;5138748;27;45383;-71
2022/09/04 02:45:58;;;;;;;;;6.25;6.25;;;;;18.76;58.55;100604.09;5138514;27;45395;-72
2022/09/04 02:48:50;;;;;;;;;9.75;9.75;;;;;18.73;58.50;100601.66;5139035;27;45222;-72
2022/09/04 02:51:33;;;;;;;;;11.50;11.50;;;;;18.70;59.13;100602.72;5120010;27;45964;-70
2022/09/04 02:54:13;;;;;;;;;10.00;10.00;;;;;18.69;59.13;100607.22;5138223;27;45267;-70
2022/09/04 02:56:51;;;;;;;;;8.25;8.25;;;;;18.66;59.13;100610.09;5138481;27;45352;-72
2022/09/04 02:59:38;;;;;;;;;9.00;9.00;;;;;18.64;58.90;100611.16;5138705;27;45267;-73
2022/09/04 03:02:14;;;;;;;;;11.25;11.25;;;;;18.60;59.25;100610.56;5133730;27;46262;-70
2022/09/04 03:04:51;;;;;;;;;11.50;11.50;;;;;18.58;59.21;100617.81;5139617;27;45393;-71
2022/09/04 03:07:24;;;;;;;;;7.50;7.50;;;;;18.58;59.43;100619.59;5139513;27;45391;-69
2022/09/04 03:10:10;;;;;;;;;12.00;10.00;;;;;18.55;59.40;100604.69;5136661;27;45209;-73
2022/09/04 03:12:51;;;;;;;;;9.25;9.25;;;;;18.53;59.15;100615.47;5136129;27;45438;-72
2022/09/04 03:15:19;;;;;;;;;8.25;8.25;;;;;18.53;59.37;100615.47;5137208;27;45424;-73
2022/09/04 03:18:03;;;;;;;;;9.25;9.25;;;;;18.49;59.05;100608.66;5118813;27;45265;-72
2022/09/04 03:20:32;;;;;;;;;8.75;8.75;;;;;18.49;59.11;100614.00;5119762;27;45541;-71
2022/09/04 03:23:18;;;;;;;;;10.25;10.25;;;;;18.43;59.21;100611.78;5138295;27;46848;-69
2022/09/04 03:25:49;;;;;;;;;9.50;9.50;;;;;18.45;59.10;100622.31;5136276;27;45340;-69
2022/09/04 03:28:33;;;;;;;;;8.25;8.25;;;;;18.42;59.28;100623.41;5137678;27;45159;-72
2022/09/04 03:31:16;;;;;;;;;9.25;9.25;;;;;18.40;59.32;100622.66;5138231;27;45353;-70
2022/09/04 03:33:53;;;;;;;;;14.75;14.75;;;;;18.39;59.14;100623.63;5118338;27;46819;-73
2022/09/04 03:36:44;;;;;;;;;12.50;12.50;;;;;18.37;59.16;100621.06;5136571;27;45388;-68
2022/09/04 03:39:57;;;;;;;;;8.50;8.50;;;;;18.37;59.56;100630.88;5137773;27;45383;-72
2022/09/04 03:42:49;;;;;;;;;8.75;8.75;;;;;18.34;59.45;100620.44;5041607;27;45778;-73
2022/09/04 03:45:50;;;;;;;;;7.50;7.50;;;;;18.35;59.10;100622.97;5137226;27;46094;-72
2022/09/04 03:48:36;;;;;;;;;8.50;8.50;;;;;18.39;59.42;100619.13;5137182;27;45358;-71
2022/09/04 03:51:28;;;;;;;;;8.75;8.75;;;;;18.47;59.21;100623.91;5137768;27;45433;-73
2022/09/04 03:54:20;;;;;;;;;8.25;8.25;;;;;18.53;59.11;100620.78;5137338;27;45547;-72
2022/09/04 03:57:07;;;;;;;;;8.25;8.25;;;;;18.58;58.93;100623.13;5136811;27;45244;-71
2022/09/04 03:59:45;;;;;;;;;10.00;9.25;;;;;18.65;58.73;100627.06;5137377;27;45228;-73
2022/09/04 04:02:31;;;;;;;;;9.00;8.50;;;;;18.68;58.63;100624.16;5118535;27;45332;-71
2022/09/04 04:05:02;;;;;;;;;9.00;9.00;;;;;18.74;58.52;100625.50;5137724;27;45546;-72
2022/09/04 04:07:52;;;;;;;;;8.50;8.50;;;;;18.79;58.41;100626.00;5118388;27;47104;-73
2022/09/04 04:10:57;;;;;;;;;7.50;7.50;;;;;18.82;57.95;100625.78;5118134;27;45474;-73
2022/09/04 04:13:44;;;;;;;;;7.25;7.25;;;;;18.84;58.04;100637.16;5137032;27;45420;-68
2022/09/04 04:16:18;;;;;;;;;8.25;8.25;;;;;18.86;57.87;100634.41;5117783;27;45439;-70
2022/09/04 04:18:46;;;;;;;;;9.25;9.25;;;;;18.88;58.56;100635.16;5136847;27;45550;-71
2022/09/04 04:21:19;;;;;;;;;10.00;10.00;;;;;18.88;57.85;100628.94;5117723;27;45326;-71
2022/09/04 04:24:16;;;;;;;;;8.00;8.00;;;;;18.93;57.50;100640.13;5137333;27;45281;-69
2022/09/04 04:27:02;;;;;;;;;8.25;8.25;;;;;18.92;57.52;100641.06;5136648;27;45257;-72
2022/09/04 04:29:49;;;;;;;;;7.75;6.50;;;;;18.93;57.91;100632.97;5136534;27;46256;-71
2022/09/04 04:32:24;;;;;;;;;6.50;6.50;;;;;18.94;56.71;100631.16;5136414;27;45429;-72
2022/09/04 04:34:49;;;;;;;;;8.50;8.50;;;;;18.95;57.47;100644.38;5136676;27;45287;-70
2022/09/04 04:37:49;;;;;;;;;8.50;8.50;;;;;18.96;57.22;100639.88;5135897;27;45526;-70
2022/09/04 04:40:40;;;;;;;;;10.00;10.00;;;;;18.96;57.16;100643.41;5117725;27;47204;-72
2022/09/04 04:43:11;;;;;;;;;10.00;10.00;;;;;18.97;56.99;100642.47;5137136;27;45271;-71
2022/09/04 04:46:13;;;;;;;;;8.25;8.25;;;;;18.98;57.32;100646.84;5136991;27;45292;-70
2022/09/04 04:48:57;;;;;;;;;8.25;8.25;;;;;19.01;56.82;100653.75;5102783;27;45543;-70
2022/09/04 04:52:17;;;;;;;;;9.75;9.75;;;;;19.03;56.72;100653.66;5137134;27;46447;-70
2022/09/04 04:55:05;;;;;;;;;6.75;6.75;;;;;19.08;56.64;100663.00;5074195;28;45289;-69
2022/09/04 04:57:54;;;;;;;;;7.00;7.00;;;;;19.12;56.88;100656.50;5133729;27;45460;-70
2022/09/04 05:00:31;;;;;;;;;5.00;5.00;;;;;19.14;56.53;100666.19;5118824;27;45378;-70
2022/09/04 05:03:33;;;;;;;;;9.00;8.25;;;;;19.14;56.72;100666.19;5138064;27;46714;-69
2022/09/04 05:06:08;;;;;;;;;8.25;8.25;;;;;19.11;56.53;100668.13;5138238;27;45321;-70
2022/09/04 05:09:07;;;;;;;;;9.00;9.00;;;;;19.08;56.66;100670.16;5139197;27;45307;-68
2022/09/04 05:11:51;;;;;;;;;7.25;7.25;;;;;19.02;56.35;100671.44;5136764;27;45278;-68
2022/09/04 05:14:41;;;;;;;;;9.25;9.25;;;;;18.97;56.47;100673.59;5136033;27;46291;-71
2022/09/04 05:17:16;;;;;;;;;7.00;7.00;;;;;18.95;56.33;100671.03;5136179;27;45360;-72
2022/09/04 05:20:09;;;;;;;;;9.25;9.25;;;;;18.93;56.49;100682.75;5136056;27;45482;-69
2022/09/04 05:22:37;;;;;;;;;7.50;7.50;;;;;18.90;56.47;100689.19;5136522;27;45312;-72
2022/09/04 05:25:24;;;;;;;;;10.25;10.25;;;;;18.90;56.89;100690.97;5136015;27;45905;-72
2022/09/04 05:28:10;;;;;;;;;22.75;21.25;;;;;18.90;56.89;100693.66;5135772;27;45222;-69
2022/09/04 05:30:49;;;;;;;;;13.25;13.25;;;;;18.92;56.80;100697.06;5136058;27;45368;-70
2022/09/04 05:33:28;;;;;;;;;10.00;9.75;;;;;18.92;57.21;100708.56;5136187;27;45363;-69
2022/09/04 05:36:21;;;;;;;;;9.00;9.00;;;;;18.90;56.86;100704.31;5135494;27;45296;-68
2022/09/04 05:38:55;;;;;;;;;9.50;9.50;;;;;18.90;57.27;100706.97;5135601;27;45297;-71
2022/09/04 05:41:42;;;;;;;;;10.00;9.00;;;;;18.87;57.04;100710.72;5135768;27;45340;-71
2022/09/04 05:44:20;;;;;;;;;9.00;9.00;;;;;18.91;57.62;100711.34;5118170;27;45442;-72
2022/09/04 05:47:13;;;;;;;;;10.00;10.00;;;;;18.91;57.74;100722.00;5137766;27;46643;-74
2022/09/04 05:50:00;;;;;;;;;11.75;11.75;;;;;18.92;57.91;100727.22;5139890;27;45297;-74
2022/09/04 05:52:25;;;;;;;;;11.25;11.25;;;;;18.93;58.22;100722.75;5139394;27;45404;-73
2022/09/04 05:55:05;;;;;;;;;12.50;12.50;;;;;18.95;58.61;100728.81;5139601;27;45538;-73
2022/09/04 05:58:01;;;;;;;;;13.25;13.25;;;;;19.00;58.69;100726.69;5139601;27;46458;-74
2022/09/04 06:00:43;;;;;;;;;12.00;10.75;;;;;19.03;58.32;100734.47;5140352;27;45286;-72
2022/09/04 06:03:29;;;;;;;;;12.00;12.00;;;;;19.08;58.87;100731.47;5140977;27;45509;-70
2022/09/04 06:06:03;;;;;;;;;13.25;13.25;;;;;19.09;58.53;100734.03;5139328;27;45433;-73
2022/09/04 06:08:55;;;;;;;;;12.50;12.50;;;;;19.07;58.60;100738.59;5138885;27;45463;-72
2022/09/04 06:11:57;;;;;;;;;14.00;14.00;;;;;19.03;58.89;100737.13;5139309;27;45368;-73
2022/09/04 06:14:55;;;;;;;;;10.50;10.50;;;;;19.05;58.90;100739.69;5139552;27;45352;-72
2022/09/04 06:17:43;;;;;;;;;11.50;11.50;;;;;19.00;59.17;100739.19;5140217;27;45326;-73
2022/09/04 06:20:32;;;;;;;;;13.25;13.25;;;;;19.01;59.04;100741.72;5139502;27;46311;-72
2022/09/04 06:23:35;;;;;;;;;11.75;11.75;;;;;19.02;59.29;100747.91;5138666;27;45361;-70
2022/09/04 06:26:28;;;;;;;;;12.50;12.50;;;;;19.03;59.24;100753.13;5139205;27;45367;-72
2022/09/04 06:28:53;;;;;;;;;10.50;10.50;;;;;19.01;59.61;100749.72;5139176;27;45255;-70
2022/09/04 06:31:19;;;;;;;;;15.00;15.00;;;;;19.01;59.12;100757.72;5138640;27;45960;-70
2022/09/04 06:34:32;;;;;;;;;17.00;17.00;;;;;19.01;59.53;100756.88;5139491;27;45291;-71
2022/09/04 06:37:03;;;;;;;;;10.50;10.50;;;;;18.97;59.35;100758.91;5047923;27;45575;-69
2022/09/04 06:39:47;;;;;;;;;11.25;11.25;;;;;18.96;59.47;100763.34;5138949;27;45373;-72
2022/09/04 06:42:27;;;;;;;;;11.75;11.75;;;;;18.97;59.46;100767.75;5138569;27;46250;-70
2022/09/04 06:44:52;;;;;;;;;11.25;11.25;;;;;18.97;59.52;100769.56;5119461;27;45457;-71
2022/09/04 06:47:36;;;;;;;;;12.25;12.25;;;;;19.03;59.32;100769.09;5138344;27;45976;-72
2022/09/04 06:50:23;;;;;;;;;11.00;11.00;;;;;19.12;58.65;100773.78;5138579;27;45222;-69
2022/09/04 06:53:10;;;;;;;;;10.00;10.00;;;;;19.24;58.81;100780.03;5138028;27;46592;-70
2022/09/04 06:56:03;;;;;;;;;11.50;11.50;;;;;19.33;58.75;100786.50;5137891;27;45349;-71
2022/09/04 06:58:46;;;;;;;;;12.00;12.00;;;;;19.39;58.54;100783.38;5137890;27;45344;-69
2022/09/04 07:01:20;;;;;;;;;9.50;9.50;;;;;19.45;58.44;100782.06;5138726;27;45351;-71
2022/09/04 07:04:00;;;;;;;;;11.25;11.25;;;;;19.47;57.88;100788.13;5119140;27;47032;-69
2022/09/04 07:06:48;;;;;;;;;11.25;11.25;;;;;19.49;58.24;100783.53;5137819;27;45328;-72
2022/09/04 07:09:29;;;;;;;;;17.25;17.25;;;;;19.52;58.23;100783.31;5137865;27;45327;-70
2022/09/04 07:12:45;;;;;;;;;8.50;8.50;;;;;19.58;58.04;100781.13;5138089;27;45318;-70
2022/09/04 07:15:13;;;;;;;;;10.50;10.50;;;;;19.65;57.78;100780.56;5033392;28;45574;-69
2022/09/04 07:18:00;;;;;;;;;12.00;12.00;;;;;19.70;57.57;100785.56;5032817;28;45588;-69
2022/09/04 07:21:03;;;;;;;;;11.25;11.25;;;;;19.85;57.69;100788.88;5065693;27;45396;-72
2022/09/04 07:23:54;;;;;;;;;12.75;12.75;;;;;19.98;57.29;100794.16;5117166;27;45661;-68
2022/09/04 07:26:47;;;;;;;;;11.25;11.25;;;;;19.98;56.97;100795.00;5116908;27;46701;-68
2022/09/04 07:29:28;;;;;;;;;13.75;13.75;;;;;20.05;57.18;100805.22;5117761;27;45459;-69
2022/09/04 07:32:06;;;;;;;;;9.50;9.50;;;;;20.10;56.96;100803.03;5117050;27;45297;-71
2022/09/04 07:34:38;;;;;;;;;14.50;14.50;;;;;20.18;56.87;100808.66;5117508;27;45319;-71
2022/09/04 07:37:10;;;;;;;;;14.25;14.25;;;;;20.26;56.53;100818.75;5117025;27;46310;-73
2022/09/04 07:39:51;;;;;;;;;14.50;14.50;;;;;20.36;56.86;100816.22;5098486;27;46026;-69
2022/09/04 07:42:28;;;;;;;;;14.00;14.00;;;;;20.38;56.14;100817.78;5116910;27;45179;-69
2022/09/04 07:45:11;;;;;;;;;12.50;12.50;;;;;20.47;56.25;100821.56;5115955;27;45673;-70
2022/09/04 07:47:44;;;;;;;;;15.50;15.50;;;;;20.49;56.10;100808.94;5116123;27;45509;-71
2022/09/04 07:50:30;;;;;;;;;13.00;13.00;;;;;20.59;56.26;100809.03;5116473;27;45326;-70
2022/09/04 07:53:13;;;;;;;;;12.25;12.25;;;;;20.73;55.41;100826.66;5120925;27;45210;-69
2022/09/04 07:55:49;;;;;;;;;15.00;15.00;;;;;20.78;55.39;100823.66;5116638;27;45276;-71
2022/09/04 07:58:37;;;;;;;;;12.00;12.00;;;;;20.83;54.81;100830.34;5122553;27;46474;-69
2022/09/04 08:01:26;;;;;;;;;12.25;12.25;;;;;20.88;54.93;100835.34;5090027;27;45271;-77
2022/09/04 08:04:22;;;;;;;;;13.00;13.00;;;;;20.98;54.97;100836.28;5134360;27;45480;-75
2022/09/04 08:07:19;;;;;;;;;13.25;13.25;;;;;21.14;54.26;100838.56;5117638;27;45546;-73
2022/09/04 08:10:00;;;;;;;;;9.75;9.75;;;;;21.28;54.06;100847.31;5136609;27;45333;-75
2022/09/04 08:12:31;;;;;;;;;12.00;12.00;;;;;21.40;53.47;100850.78;5136809;27;45340;-74
2022/09/04 08:15:18;;;;;;;;;9.75;9.75;;;;;21.51;53.25;100849.91;5127968;27;45701;-74
2022/09/04 08:18:10;;;;;;;;;8.50;8.50;;;;;21.62;52.75;100847.19;5125015;27;45370;-76
2022/09/04 08:20:51;;;;;;;;;9.75;9.75;;;;;21.74;52.56;100851.56;5124413;27;45473;-76
2022/09/04 08:23:32;;;;;;;;;8.00;8.00;;;;;21.85;52.19;100856.03;5117265;27;45445;-78
2022/09/04 08:26:22;;;;;;;;;7.25;7.25;;;;;21.96;51.77;100859.63;5130545;27;45457;-75
2022/09/04 08:29:31;;;;;;;;;7.25;7.25;;;;;22.07;51.24;100864.06;5121213;27;45379;-75
2022/09/04 08:32:30;;;;;;;;;10.00;10.00;;;;;22.14;51.38;100866.09;5114832;27;46144;-79
2022/09/04 08:35:04;;;;;;;;;10.00;10.00;;;;;22.23;51.16;100859.09;5122270;27;45712;-79
2022/09/04 08:38:07;;;;;;;;;11.25;11.25;;;;;22.32;50.23;100857.47;5117560;27;45464;-75
2022/09/04 08:40:47;;;;;;;;;9.00;9.00;;;;;22.36;49.90;100861.59;5120551;27;45583;-73
2022/09/04 08:43:44;;;;;;;;;9.50;9.50;;;;;22.45;49.36;100863.50;5117642;27;46212;-72
2022/09/04 08:46:18;;;;;;;;;8.75;8.75;;;;;22.51;48.92;100864.81;5116898;27;45391;-73
2022/09/04 08:48:58;;;;;;;;;6.00;6.00;;;;;22.57;48.50;100866.09;5115695;27;45414;-79
2022/09/04 08:51:51;;;;;;;;;3.50;3.50;;;;;22.63;48.21;100870.09;5123354;27;45307;-81
2022/09/04 08:54:41;;;;;;;;;5.75;5.75;;;;;22.73;47.81;100862.94;5129912;27;46740;-81
2022/09/04 08:57:38;;;;;;;;;27.25;27.00;;;;;22.86;47.61;100865.41;5123859;27;45255;-80
2022/09/04 09:00:11;;;;;;;;;6.50;6.50;;;;;22.94;46.88;100870.06;5132627;27;45423;-80
2022/09/04 09:03:07;;;;;;;;;9.00;9.00;;;;;23.04;47.01;100879.00;5122287;27;45571;-79
2022/09/04 09:06:10;;;;;;;;;6.50;6.50;;;;;23.12;46.57;100879.16;5115745;27;46672;-80
2022/09/04 09:08:45;;;;;;;;;6.50;6.50;;;;;23.23;46.73;100877.34;5120284;27;45407;-81
2022/09/04 09:11:28;;;;;;;;;5.00;5.00;;;;;23.34;46.29;100869.25;5124578;27;45591;-80
2022/09/04 09:14:06;;;;;;;;;7.25;7.25;;;;;23.40;45.44;100876.75;5105690;27;45522;-78
2022/09/04 09:17:11;;;;;;;;;5.75;5.75;;;;;23.47;45.74;100877.03;5113278;27;45698;-77
2022/09/04 09:19:53;;;;;;;;;7.75;5.75;;;;;23.57;45.24;100875.19;5115146;27;45441;-77
2022/09/04 09:22:30;;;;;;;;;7.50;7.50;;;;;23.70;45.25;100877.63;5117079;27;45333;-76
2022/09/04 09:25:15;;;;;;;;;6.75;6.75;;;;;23.84;44.71;100867.44;5117318;27;45504;-76
2022/09/04 09:27:56;;;;;;;;;5.50;5.50;;;;;23.97;43.67;100873.38;5100031;27;47364;-75
2022/09/04 09:30:23;;;;;;;;;5.25;5.25;;;;;24.03;43.72;100872.84;5100431;27;45374;-76
2022/09/04 09:33:30;;;;;;;;;5.00;5.00;;;;;24.11;43.14;100865.91;5119492;27;45305;-77
2022/09/04 09:36:22;;;;;;;;;5.50;5.50;;;;;24.24;43.55;100874.50;5100537;27;45333;-79
2022/09/04 09:39:16;;;;;;;;;8.00;8.00;;;;;24.35;43.12;100868.97;5118247;27;45343;-75
2022/09/04 09:42:26;;;;;;;;;8.00;8.00;;;;;24.44;42.63;100869.09;5119087;27;45360;-77
2022/09/04 09:44:54;;;;;;;;;7.50;7.50;;;;;24.56;42.25;100873.31;5118126;27;45482;-77
2022/09/04 09:47:51;;;;;;;;;9.75;9.75;;;;;24.68;41.74;100882.03;5120102;27;45271;-76
2022/09/04 09:50:49;;;;;;;;;5.00;5.00;;;;;24.80;41.77;100875.50;5101555;27;45387;-77
2022/09/04 09:53:52;;;;;;;;;12.75;12.75;;;;;24.94;41.86;100879.56;5099788;27;45554;-76
2022/09/04 09:56:55;;;;;;;;;13.50;13.50;;;;;25.11;41.53;100874.38;5118820;27;45302;-75
2022/09/04 09:59:35;;;;;;;;;6.25;6.25;;;;;25.20;41.39;100862.69;5100018;27;45566;-77
2022/09/04 10:02:48;;;;;;;;;4.25;4.25;;;;;25.38;40.88;100872.66;5118275;27;46227;-76
2022/09/04 10:05:13;;;;;;;;;5.75;5.00;;;;;25.46;40.51;100867.41;5117932;27;45301;-77
2022/09/04 10:08:09;;;;;;;;;5.00;5.00;;;;;25.46;40.66;100864.72;5118032;27;45484;-78
2022/09/04 10:11:00;;;;;;;;;4.50;4.50;;;;;25.54;40.73;100865.78;5089218;27;45397;-78
2022/09/04 10:14:01;;;;;;;;;7.00;7.00;;;;;25.66;39.92;100862.69;5099832;27;47352;-77
2022/09/04 10:16:35;;;;;;;;;10.25;10.25;;;;;25.76;39.66;100864.47;5118875;27;45359;-76
2022/09/04 10:19:00;;;;;;;;;3.75;3.75;;;;;25.85;39.58;100860.00;5118204;27;45406;-76
2022/09/04 10:21:44;;;;;;;;;3.75;3.75;;;;;25.91;39.40;100860.22;5118641;27;45394;-77
2022/09/04 10:24:42;;;;;;;;;5.25;5.25;;;;;26.00;39.97;100863.84;5118531;27;45415;-77
2022/09/04 10:27:22;;;;;;;;;4.75;4.75;;;;;26.12;39.71;100864.44;5118299;27;45289;-76
2022/09/04 10:29:47;;;;;;;;;7.50;7.50;;;;;26.18;39.92;100858.47;5100662;27;45370;-76
2022/09/04 10:32:46;;;;;;;;;4.75;4.75;;;;;26.25;38.80;100853.25;5100245;27;45626;-75
2022/09/04 10:35:40;;;;;;;;;6.00;6.00;;;;;26.33;39.46;100857.88;5117683;27;46220;-77
2022/09/04 10:38:23;;;;;;;;;4.25;4.25;;;;;26.42;39.41;100850.66;5099864;27;45423;-76
2022/09/04 10:41:11;;;;;;;;;13.25;13.25;;;;;26.48;38.89;100850.03;5118833;27;45377;-76
2022/09/04 10:43:46;;;;;;;;;4.50;4.50;;;;;26.51;39.60;100844.34;5099765;27;45295;-76
2022/09/04 10:46:23;;;;;;;;;8.00;8.00;;;;;26.57;39.44;100846.41;5117763;27;45461;-76
2022/09/04 10:49:14;;;;;;;;;5.25;5.25;;;;;26.68;39.35;100851.50;5117876;27;45327;-76
2022/09/04 10:51:55;;;;;;;;;5.00;5.00;;;;;26.75;39.29;100856.25;5117638;27;45405;-75
2022/09/04 10:54:28;;;;;;;;;11.00;11.00;;;;;26.81;39.00;100847.50;5118470;27;45180;-76
2022/09/04 10:57:20;;;;;;;;;14.25;14.25;;;;;26.87;39.39;100846.91;5117261;27;45452;-76
2022/09/04 11:00:07;;;;;;;;;7.00;7.00;;;;;26.96;39.11;100842.34;5098363;27;45478;-76
2022/09/04 11:03:02;;;;;;;;;9.00;9.00;;;;;27.07;39.30;100831.28;5098309;27;45389;-76
2022/09/04 11:05:36;;;;;;;;;4.75;4.75;;;;;27.14;38.64;100828.75;5098716;27;45470;-76
2022/09/04 11:08:17;;;;;;;;;4.50;4.50;;;;;27.21;38.48;100823.56;5117215;27;45416;-76
2022/09/04 11:11:21;;;;;;;;;4.50;4.50;;;;;27.32;38.60;100830.47;5117873;27;45351;-76
2022/09/04 11:14:20;;;;;;;;;4.75;4.75;;;;;27.44;38.28;100831.84;5098638;27;45246;-77
2022/09/04 11:16:45;;;;;;;;;7.25;7.25;;;;;27.45;38.08;100830.84;5117412;27;45425;-76
2022/09/04 11:19:47;;;;;;;;;4.00;4.00;;;;;27.46;38.60;100834.38;5116477;27;46649;-77
2022/09/04 11:22:47;;;;;;;;;4.25;4.25;;;;;27.53;38.03;100830.88;5116977;27;45522;-76
2022/09/04 11:25:50;;;;;;;;;6.75;6.75;;;;;27.63;37.92;100822.63;5116674;27;45439;-77
2022/09/04 11:28:43;;;;;;;;;7.00;7.00;;;;;27.69;37.79;100821.94;5116653;27;45395;-75
2022/09/04 11:31:33;;;;;;;;;8.25;8.25;;;;;27.79;38.35;100827.19;5116623;27;45594;-76
2022/09/04 11:34:07;;;;;;;;;7.25;7.25;;;;;27.91;37.56;100818.72;5116634;27;45408;-76
2022/09/04 11:37:08;;;;;;;;;8.25;8.25;;;;;28.03;38.13;100825.47;5116907;27;45319;-77
2022/09/04 11:39:39;;;;;;;;;6.25;6.25;;;;;28.05;36.81;100814.47;5065769;27;45517;-76
2022/09/04 11:42:32;;;;;;;;;7.00;7.00;;;;;28.16;36.88;100818.72;5116856;27;46664;-76
2022/09/04 11:45:16;;;;;;;;;5.50;5.50;;;;;28.19;37.35;100816.53;5116272;27;45325;-77
2022/09/04 11:48:17;;;;;;;;;4.75;3.75;;;;;28.23;36.91;100812.47;5099028;27;45912;-78
2022/09/04 11:50:51;;;;;;;;;5.25;5.25;;;;;28.30;37.02;100807.19;5086409;27;45440;-77
2022/09/04 11:53:22;;;;;;;;;6.25;6.25;;;;;28.37;36.57;100812.75;5125588;27;45632;-76
2022/09/04 11:55:57;;;;;;;;;11.00;11.00;;;;;28.47;36.63;100812.53;5100350;27;45447;-75
2022/09/04 11:58:58;;;;;;;;;7.75;7.75;;;;;28.61;36.63;100800.16;5117578;27;45272;-75
2022/09/04 12:01:45;;;;;;;;;6.50;6.50;;;;;28.62;36.96;100809.97;5033262;28;45348;-75
2022/09/04 12:04:39;;;;;;;;;4.00;4.00;;;;;28.66;36.38;100811.31;5112422;27;45822;-74
2022/09/04 12:07:14;;;;;;;;;5.50;5.50;;;;;28.63;36.14;100808.94;5099425;27;45317;-74
2022/09/04 12:10:15;;;;;;;;;5.25;5.25;;;;;28.64;36.35;100813.34;5118447;27;45313;-76
2022/09/04 12:12:56;;;;;;;;;5.00;5.00;;;;;28.68;35.72;100815.53;5117727;27;45263;-74
2022/09/04 12:15:37;;;;;;;;;7.00;7.00;;;;;28.74;36.08;100807.72;5116972;27;45646;-76
2022/09/04 12:18:07;;;;;;;;;6.75;6.75;;;;;28.80;35.73;100796.22;5116413;27;45352;-76
2022/09/04 12:20:57;;;;;;;;;11.25;11.25;;;;;28.86;35.57;100806.34;5116573;27;45321;-77
2022/09/04 12:23:49;;;;;;;;;5.75;5.75;;;;;28.94;35.29;100800.88;5098246;27;45339;-77
2022/09/04 12:26:17;;;;;;;;;5.75;5.75;;;;;29.06;35.62;100804.03;5116367;27;45711;-77
2022/09/04 12:29:21;;;;;;;;;6.75;6.75;;;;;29.19;35.42;100791.78;5116117;27;45369;-77
2022/09/04 12:31:50;;;;;;;;;4.75;4.75;;;;;29.26;34.90;100787.31;5116467;27;45409;-78
2022/09/04 12:34:31;;;;;;;;;5.00;5.00;;;;;29.33;34.13;100792.84;5116748;27;45273;-77
2022/09/04 12:37:04;;;;;;;;;7.00;7.00;;;;;29.37;34.51;100792.31;5116429;27;45741;-76